createdAt,value
2018-05-03T00:00:10.675Z,13.50
2018-05-03T00:02:38.124Z,9.00
2018-05-03T00:05:05.568Z,8.00
2018-05-03T00:07:33.785Z,8.40
2018-05-03T00:10:01.232Z,9.67
2018-05-03T00:12:28.667Z,10.80
2018-05-03T00:14:56.143Z,9.77
2018-05-03T00:17:24.327Z,12.83
2018-05-03T00:19:51.770Z,9.60
2018-05-03T00:22:19.233Z,10.60
2018-05-03T00:24:46.675Z,9.90
2018-05-03T00:27:14.120Z,9.33
2018-05-03T00:29:41.574Z,10.50
2018-05-03T00:32:09.796Z,10.87
2018-05-03T00:34:37.238Z,10.27
2018-05-03T00:37:04.696Z,10.70
2018-05-03T00:39:32.135Z,10.53
2018-05-03T00:41:59.585Z,12.73
2018-05-03T00:44:27.024Z,12.03
2018-05-03T00:46:55.247Z,12.20
2018-05-03T00:49:22.699Z,9.57
2018-05-03T00:51:50.159Z,13.13
2018-05-03T00:54:29.407Z,12.70
2018-05-03T00:56:56.879Z,12.67
2018-05-03T00:59:24.331Z,12.10
2018-05-03T01:01:51.765Z,12.20
2018-05-03T01:04:19.224Z,13.90
2018-05-03T01:06:46.666Z,11.07
2018-05-03T01:09:14.112Z,14.10
2018-05-03T01:11:41.566Z,13.43
2018-05-03T01:14:09.011Z,9.53
2018-05-03T01:16:37.239Z,10.53
2018-05-03T01:19:04.703Z,11.50
2018-05-03T01:21:32.144Z,11.73
2018-05-03T01:23:59.599Z,11.80
2018-05-03T01:26:27.045Z,12.10
2018-05-03T01:28:54.500Z,11.60
2018-05-03T01:31:21.948Z,11.70
2018-05-03T01:33:49.403Z,9.57
2018-05-03T01:36:25.663Z,12.87
2018-05-03T01:38:53.128Z,13.23
2018-05-03T01:41:20.574Z,11.87
2018-05-03T01:43:48.784Z,13.60
2018-05-03T01:46:16.229Z,11.60
2018-05-03T01:48:43.688Z,12.87
2018-05-03T01:51:11.137Z,13.20
2018-05-03T01:53:38.598Z,17.13
2018-05-03T01:56:06.034Z,13.40
2018-05-03T01:58:34.254Z,11.90
2018-05-03T02:01:01.701Z,12.40
2018-05-03T02:03:29.177Z,11.70
2018-05-03T02:05:56.613Z,12.30
2018-05-03T02:08:24.060Z,16.57
2018-05-03T02:10:51.503Z,14.37
2018-05-03T02:13:18.960Z,11.47
2018-05-03T02:15:46.409Z,13.23
2018-05-03T02:18:14.616Z,10.90
2018-05-03T02:20:42.068Z,22.00
2018-05-03T02:23:09.519Z,12.13
2018-05-03T02:25:36.965Z,10.00
2018-05-03T02:28:04.416Z,13.03
2018-05-03T02:30:31.874Z,13.30
2018-05-03T02:33:00.088Z,13.47
2018-05-03T02:35:27.544Z,14.47
2018-05-03T02:37:54.992Z,14.30
2018-05-03T02:40:22.444Z,11.90
2018-05-03T02:42:49.889Z,11.00
2018-05-03T02:45:17.349Z,11.93
2018-05-03T02:47:44.791Z,11.73
2018-05-03T02:50:12.267Z,10.03
2018-05-03T02:52:39.703Z,11.60
2018-05-03T02:55:07.173Z,14.10
2018-05-03T02:57:52.341Z,12.10
2018-05-03T03:00:37.453Z,13.40
2018-05-03T03:03:22.681Z,21.00
2018-05-03T03:06:07.766Z,13.40
2018-05-03T03:12:26.558Z,13.20
2018-05-03T03:15:11.588Z,15.30
2018-05-03T03:17:57.535Z,15.20
2018-05-03T03:20:54.373Z,13.97
2018-05-03T03:23:39.562Z,15.37
2018-05-03T03:29:29.591Z,13.53
2018-05-03T03:32:14.887Z,12.73
2018-05-03T03:34:43.109Z,13.97
2018-05-03T03:37:32.108Z,12.90
2018-05-03T03:40:17.332Z,12.30
2018-05-03T03:45:44.413Z,18.17
2018-05-03T03:50:46.603Z,13.00
2018-05-03T03:53:14.116Z,14.50
2018-05-03T03:55:41.513Z,14.27
2018-05-03T03:58:08.960Z,16.23
2018-05-03T04:00:36.569Z,14.97
2018-05-03T04:03:04.016Z,16.07
2018-05-03T04:05:31.473Z,16.37
2018-05-03T04:07:58.976Z,14.57
2018-05-03T04:10:26.432Z,15.73
2018-05-03T04:12:53.906Z,17.80
2018-05-03T04:15:21.343Z,18.83
2018-05-03T04:18:00.797Z,14.43
2018-05-03T04:20:46.093Z,13.63
2018-05-03T04:23:40.523Z,15.90
2018-05-03T04:26:08.765Z,15.17
2018-05-03T04:28:36.240Z,18.53
2018-05-03T04:31:03.693Z,15.87
2018-05-03T04:33:31.166Z,15.40
2018-05-03T04:35:58.654Z,16.50
2018-05-03T04:38:26.108Z,16.53
2018-05-03T04:40:53.556Z,14.03
2018-05-03T04:43:21.785Z,17.47
2018-05-03T04:45:49.257Z,14.77
2018-05-03T04:48:16.735Z,14.87
2018-05-03T04:50:44.191Z,14.63
2018-05-03T04:53:12.422Z,16.20
2018-05-03T04:55:40.016Z,15.27
2018-05-03T04:58:07.468Z,14.63
2018-05-03T05:00:34.919Z,15.97
2018-05-03T05:03:02.373Z,16.17
2018-05-03T05:05:29.828Z,15.80
2018-05-03T05:07:57.287Z,15.10
2018-05-03T05:10:24.807Z,13.53
2018-05-03T05:12:52.204Z,15.20
2018-05-03T05:15:19.690Z,15.83
2018-05-03T05:17:47.986Z,13.63
2018-05-03T05:20:15.372Z,14.63
2018-05-03T05:22:42.831Z,15.43
2018-05-03T05:25:10.281Z,16.33
2018-05-03T05:27:37.735Z,13.53
2018-05-03T05:30:05.184Z,14.17
2018-05-03T05:32:32.663Z,14.43
2018-05-03T05:35:00.110Z,14.93
2018-05-03T05:37:27.569Z,16.80
2018-05-03T05:39:55.037Z,15.20
2018-05-03T05:42:22.471Z,15.73
2018-05-03T05:44:49.952Z,16.27
2018-05-03T05:47:17.390Z,14.20
2018-05-03T05:49:44.847Z,14.30
2018-05-03T05:52:12.304Z,16.67
2018-05-03T05:54:39.755Z,15.40
2018-05-03T05:57:07.196Z,15.00
2018-05-03T05:59:34.657Z,17.77
2018-05-03T06:02:02.859Z,15.17
2018-05-03T06:04:30.331Z,15.30
2018-05-03T06:06:57.772Z,20.67
2018-05-03T06:09:25.249Z,13.80
2018-05-03T06:11:52.704Z,18.07
2018-05-03T06:14:20.150Z,17.40
2018-05-03T06:16:47.596Z,24.33
2018-05-03T06:19:15.069Z,19.97
2018-05-03T06:21:42.519Z,17.07
2018-05-03T06:24:09.977Z,18.40
2018-05-03T06:26:37.419Z,17.57
2018-05-03T06:29:04.873Z,18.10
2018-05-03T06:31:32.336Z,18.73
2018-05-03T06:33:59.793Z,16.60
2018-05-03T06:36:27.237Z,19.97
2018-05-03T06:38:54.777Z,17.40
2018-05-03T06:41:22.143Z,21.20
2018-05-03T06:43:49.608Z,16.63
2018-05-03T06:46:17.055Z,18.97
2018-05-03T06:48:44.509Z,17.63
2018-05-03T06:51:12.726Z,17.53
2018-05-03T06:53:40.176Z,16.30
2018-05-03T06:56:07.634Z,15.90
2018-05-03T06:58:35.119Z,21.20
2018-05-03T07:01:02.534Z,24.87
2018-05-03T07:03:29.972Z,19.10
2018-05-03T07:05:58.204Z,18.77
2018-05-03T07:08:25.648Z,17.83
2018-05-03T07:10:53.107Z,20.37
2018-05-03T07:13:20.559Z,18.50
2018-05-03T07:15:48.012Z,16.20
2018-05-03T07:18:15.460Z,15.17
2018-05-03T07:20:42.929Z,20.20
2018-05-03T07:23:10.379Z,14.50
2018-05-03T07:25:37.838Z,16.10
2018-05-03T07:28:05.279Z,14.40
2018-05-03T07:30:32.742Z,13.50
2018-05-03T07:33:00.188Z,16.00
2018-05-03T07:35:27.647Z,14.87
2018-05-03T07:37:55.105Z,15.30
2018-05-03T07:40:22.567Z,16.47
2018-05-03T07:42:50.048Z,16.63
2018-05-03T07:45:17.503Z,15.70
2018-05-03T07:47:44.951Z,15.87
2018-05-03T07:50:12.409Z,17.50
2018-05-03T07:52:39.872Z,15.80
2018-05-03T07:55:07.329Z,15.70
2018-05-03T07:57:34.779Z,15.70
2018-05-03T08:00:02.252Z,15.00
2018-05-03T08:02:29.701Z,14.70
2018-05-03T08:04:57.157Z,16.10
2018-05-03T08:07:24.611Z,16.07
2018-05-03T08:09:52.064Z,17.77
2018-05-03T08:12:19.532Z,15.90
2018-05-03T08:14:47.004Z,15.03
2018-05-03T08:17:14.480Z,16.73
2018-05-03T08:19:42.001Z,14.87
2018-05-03T08:22:09.456Z,14.37
2018-05-03T08:24:36.935Z,15.83
2018-05-03T08:27:04.470Z,14.03
2018-05-03T08:29:31.932Z,13.50
2018-05-03T08:31:59.422Z,14.70
2018-05-03T08:34:26.866Z,13.23
2018-05-03T08:36:54.324Z,14.70
2018-05-03T08:39:21.764Z,15.37
2018-05-03T08:41:49.228Z,14.53
2018-05-03T08:44:16.675Z,14.70
2018-05-03T08:46:44.128Z,15.73
2018-05-03T08:49:11.584Z,16.47
2018-05-03T08:51:39.051Z,15.03
2018-05-03T08:54:06.504Z,13.87
2018-05-03T08:56:33.958Z,18.30
2018-05-03T08:59:01.414Z,24.10
2018-05-03T09:01:28.936Z,15.53
2018-05-03T09:03:56.307Z,14.30
2018-05-03T09:06:23.759Z,15.20
2018-05-03T09:08:51.984Z,15.20
2018-05-03T09:11:19.438Z,15.63
2018-05-03T09:13:46.924Z,15.30
2018-05-03T09:16:15.171Z,14.73
2018-05-03T09:18:42.630Z,17.90
2018-05-03T09:21:10.085Z,14.83
2018-05-03T09:23:37.543Z,15.20
2018-05-03T09:26:04.995Z,15.90
2018-05-03T09:28:32.446Z,16.70
2018-05-03T09:30:59.903Z,15.20
2018-05-03T09:33:27.378Z,15.93
2018-05-03T09:35:54.840Z,14.33
2018-05-03T09:38:22.311Z,14.13
2018-05-03T09:40:49.767Z,15.40
2018-05-03T09:43:17.236Z,14.63
2018-05-03T09:45:44.696Z,16.60
2018-05-03T09:50:46.940Z,16.40
2018-05-03T09:53:14.475Z,18.73
2018-05-03T09:55:41.879Z,18.37
2018-05-03T09:58:09.332Z,16.50
2018-05-03T10:00:36.772Z,15.00
2018-05-03T10:03:04.243Z,14.10
2018-05-03T10:05:31.713Z,15.77
2018-05-03T10:07:59.172Z,13.20
2018-05-03T10:10:26.643Z,15.87
2018-05-03T10:12:54.900Z,13.83
2018-05-03T10:15:22.373Z,13.40
2018-05-03T10:17:49.831Z,13.37
2018-05-03T10:20:17.292Z,16.60
2018-05-03T10:22:44.746Z,12.87
2018-05-03T10:25:12.206Z,15.67
2018-05-03T10:27:40.440Z,14.13
2018-05-03T10:30:07.926Z,15.50
2018-05-03T10:32:35.363Z,14.30
2018-05-03T10:35:02.841Z,11.63
2018-05-03T10:37:30.288Z,16.63
2018-05-03T10:39:57.760Z,13.50
2018-05-03T10:42:25.208Z,12.57
2018-05-03T10:44:52.684Z,14.20
2018-05-03T10:47:20.138Z,14.00
2018-05-03T10:49:47.600Z,15.27
2018-05-03T10:52:15.058Z,13.40
2018-05-03T10:54:42.543Z,17.10
2018-05-03T10:57:09.996Z,12.20
2018-05-03T10:59:37.464Z,13.17
2018-05-03T11:02:04.927Z,13.27
2018-05-03T11:04:32.401Z,12.07
2018-05-03T11:06:59.877Z,12.30
2018-05-03T11:09:27.403Z,13.73
2018-05-03T11:11:54.852Z,14.30
2018-05-03T11:14:22.310Z,12.07
2018-05-03T11:16:49.756Z,11.90
2018-05-03T11:19:17.324Z,13.13
2018-05-03T11:21:44.789Z,11.50
2018-05-03T11:24:12.240Z,13.63
2018-05-03T11:26:39.745Z,13.27
2018-05-03T11:29:07.187Z,12.90
2018-05-03T11:31:34.715Z,12.70
2018-05-03T11:34:02.117Z,12.93
2018-05-03T11:36:29.575Z,13.03
2018-05-03T11:38:57.040Z,11.90
2018-05-03T11:41:24.487Z,12.10
2018-05-03T11:43:51.934Z,12.00
2018-05-03T11:46:19.443Z,12.10
2018-05-03T11:48:47.703Z,12.10
2018-05-03T11:51:15.163Z,13.10
2018-05-03T11:53:43.396Z,13.10
2018-05-03T11:56:10.848Z,12.20
2018-05-03T11:58:38.294Z,12.10
2018-05-03T12:01:05.754Z,11.40
2018-05-03T12:03:33.195Z,11.70
2018-05-03T12:06:00.656Z,14.13
2018-05-03T12:08:28.099Z,12.57
2018-05-03T12:10:55.556Z,14.67
2018-05-03T12:13:23.763Z,12.07
2018-05-03T12:15:51.223Z,11.10
2018-05-03T12:18:18.673Z,15.40
2018-05-03T12:20:46.127Z,10.33
2018-05-03T12:23:13.566Z,12.70
2018-05-03T12:25:41.029Z,16.57
2018-05-03T12:28:08.488Z,15.93
2018-05-03T12:30:35.931Z,10.87
2018-05-03T12:33:03.386Z,12.10
2018-05-03T12:35:30.846Z,9.83
2018-05-03T12:37:58.314Z,11.83
2018-05-03T12:40:25.792Z,11.90
2018-05-03T12:42:53.247Z,10.67
2018-05-03T12:45:21.909Z,9.50
2018-05-03T12:47:50.119Z,9.83
2018-05-03T12:50:17.585Z,8.63
2018-05-03T12:52:45.045Z,7.53
2018-05-03T12:55:12.507Z,10.50
2018-05-03T12:57:39.974Z,7.80
2018-05-03T13:00:07.446Z,8.83
2018-05-03T13:02:34.937Z,7.43
2018-05-03T13:05:02.405Z,7.57
2018-05-03T13:07:29.879Z,10.30
2018-05-03T13:09:57.408Z,7.60
2018-05-03T13:12:24.941Z,9.17
2018-05-03T13:14:52.427Z,7.00
2018-05-03T13:17:19.981Z,9.63
2018-05-03T13:19:47.423Z,7.50
2018-05-03T13:22:15.675Z,8.00
2018-05-03T13:24:43.119Z,6.77
2018-05-03T13:27:10.584Z,10.00
2018-05-03T13:29:38.255Z,9.10
2018-05-03T13:32:05.708Z,8.10
2018-05-03T13:34:33.295Z,7.20
2018-05-03T13:37:00.708Z,6.80
2018-05-03T13:39:28.431Z,8.80
2018-05-03T13:41:55.885Z,6.03
2018-05-03T13:44:24.280Z,9.30
2018-05-03T13:46:51.735Z,8.10
2018-05-03T13:49:19.194Z,6.13
2018-05-03T13:51:46.644Z,7.63
2018-05-03T13:54:14.186Z,6.73
2018-05-03T13:56:42.392Z,8.57
2018-05-03T13:59:09.851Z,7.30
2018-05-03T14:01:37.286Z,6.63
2018-05-03T14:04:04.743Z,6.97
2018-05-03T14:06:32.214Z,9.53
2018-05-03T14:08:59.703Z,7.17
2018-05-03T14:11:27.207Z,7.40
2018-05-03T14:13:55.427Z,12.33
2018-05-03T14:16:23.671Z,7.23
2018-05-03T14:18:51.167Z,9.67
2018-05-03T14:21:18.620Z,7.00
2018-05-03T14:23:46.076Z,7.87
2018-05-03T14:26:13.515Z,7.13
2018-05-03T14:28:40.979Z,13.07
2018-05-03T14:31:08.422Z,7.73
2018-05-03T14:33:36.294Z,7.57
2018-05-03T14:36:03.734Z,9.27
2018-05-03T14:38:31.184Z,7.30
2018-05-03T14:40:59.575Z,9.87
2018-05-03T14:43:27.085Z,9.03
2018-05-03T14:45:54.601Z,10.73
2018-05-03T14:48:22.080Z,8.07
2018-05-03T14:50:49.596Z,9.57
2018-05-03T14:53:17.858Z,9.83
2018-05-03T14:55:46.104Z,9.83
2018-05-03T14:58:13.564Z,10.60
2018-05-03T15:00:41.052Z,13.20
2018-05-03T15:03:08.532Z,7.10
2018-05-03T15:05:36.025Z,9.10
2018-05-03T15:08:03.528Z,9.33
2018-05-03T15:10:31.842Z,7.03
2018-05-03T15:13:00.037Z,7.30
2018-05-03T15:15:27.557Z,7.00
2018-05-03T15:17:55.826Z,7.57
2018-05-03T15:20:24.073Z,9.80
2018-05-03T15:22:51.552Z,9.60
2018-05-03T15:25:19.801Z,8.70
2018-05-03T15:27:47.286Z,7.83
2018-05-03T15:30:15.559Z,7.97
2018-05-03T15:32:45.732Z,8.73
2018-05-03T15:35:13.290Z,8.20
2018-05-03T15:37:40.896Z,6.57
2018-05-03T15:40:09.206Z,9.13
2018-05-03T15:42:36.669Z,6.43
2018-05-03T15:45:04.177Z,7.67
2018-05-03T15:47:31.649Z,8.33
2018-05-03T15:49:59.981Z,11.10
2018-05-03T15:52:28.195Z,8.47
2018-05-03T15:54:55.694Z,7.93
2018-05-03T15:57:23.153Z,8.30
2018-05-03T15:59:50.637Z,11.30
2018-05-03T16:02:18.371Z,7.63
2018-05-03T16:04:45.876Z,7.90
2018-05-03T16:07:13.378Z,9.10
2018-05-03T16:09:40.828Z,7.50
2018-05-03T16:12:09.032Z,10.13
2018-05-03T16:14:36.485Z,8.10
2018-05-03T16:17:03.918Z,8.03
2018-05-03T16:19:32.140Z,9.53
2018-05-03T16:21:59.587Z,9.53
2018-05-03T16:24:27.092Z,9.10
2018-05-03T16:26:54.541Z,9.20
2018-05-03T16:29:21.985Z,8.53
2018-05-03T16:31:49.461Z,9.70
2018-05-03T16:34:16.934Z,8.07
2018-05-03T16:36:45.155Z,9.60
2018-05-03T16:39:12.599Z,7.90
2018-05-03T16:41:40.044Z,8.67
2018-05-03T16:44:07.480Z,8.73
2018-05-03T16:46:35.708Z,7.93
2018-05-03T16:49:03.143Z,6.63
2018-05-03T16:51:30.601Z,9.13
2018-05-03T16:53:58.043Z,9.57
2018-05-03T16:56:25.505Z,12.67
2018-05-03T16:58:52.952Z,7.00
2018-05-03T17:01:20.486Z,7.57
2018-05-03T17:03:47.920Z,8.40
2018-05-03T17:06:15.367Z,9.23
2018-05-03T17:08:42.810Z,9.70
2018-05-03T17:11:10.273Z,13.10
2018-05-03T17:13:37.713Z,11.87
2018-05-03T17:16:05.175Z,10.70
2018-05-03T17:18:32.600Z,8.20
2018-05-03T17:21:00.831Z,8.80
2018-05-03T17:23:28.270Z,9.00
2018-05-03T17:25:55.719Z,8.90
2018-05-03T17:28:23.264Z,10.97
2018-05-03T17:30:50.736Z,8.00
2018-05-03T17:33:18.174Z,6.30
2018-05-03T17:35:45.639Z,8.57
2018-05-03T17:38:13.061Z,8.80
2018-05-03T17:40:41.296Z,10.40
2018-05-03T17:43:08.737Z,7.60
2018-05-03T17:45:36.186Z,10.87
2018-05-03T17:48:03.642Z,8.33
2018-05-03T17:50:31.139Z,7.67
2018-05-03T17:52:58.585Z,12.13
2018-05-03T17:55:26.024Z,10.83
2018-05-03T17:57:53.486Z,8.87
2018-05-03T18:00:20.922Z,7.10
2018-05-03T18:02:48.374Z,7.40
2018-05-03T18:05:15.827Z,9.00
2018-05-03T18:07:44.049Z,9.07
2018-05-03T18:10:11.591Z,11.87
2018-05-03T18:12:39.253Z,7.60
2018-05-03T18:15:06.699Z,8.80
2018-05-03T18:17:34.143Z,8.67
2018-05-03T18:20:02.543Z,7.23
2018-05-03T18:22:29.992Z,7.07
2018-05-03T18:24:57.436Z,10.43
2018-05-03T18:27:25.640Z,7.57
2018-05-03T18:29:53.249Z,6.20
2018-05-03T18:32:20.723Z,9.53
2018-05-03T18:34:49.054Z,8.07
2018-05-03T18:37:16.537Z,7.03
2018-05-03T18:39:44.911Z,9.30
2018-05-03T18:42:13.183Z,6.87
2018-05-03T18:44:40.652Z,6.73
2018-05-03T18:47:08.891Z,9.40
2018-05-03T18:49:36.363Z,7.83
2018-05-03T18:52:03.823Z,8.87
2018-05-03T18:54:31.323Z,6.77
2018-05-03T18:56:59.551Z,8.63
2018-05-03T18:59:26.998Z,7.07
2018-05-03T19:01:54.460Z,7.60
2018-05-03T19:04:21.937Z,7.93
2018-05-03T19:06:49.423Z,11.17
2018-05-03T19:09:17.675Z,8.10
2018-05-03T19:11:45.159Z,8.60
2018-05-03T19:14:12.572Z,7.73
2018-05-03T19:16:40.085Z,7.90
2018-05-03T19:19:07.477Z,7.30
2018-05-03T19:21:34.934Z,7.00
2018-05-03T19:24:02.392Z,7.83
2018-05-03T19:26:29.858Z,9.57
2018-05-03T19:28:57.311Z,7.17
2018-05-03T19:31:24.756Z,6.80
2018-05-03T19:33:52.223Z,7.33
2018-05-03T19:36:19.722Z,7.23
2018-05-03T19:38:47.200Z,6.40
2018-05-03T19:41:14.643Z,8.60
2018-05-03T19:43:42.860Z,7.27
2018-05-03T19:46:10.330Z,6.97
2018-05-03T19:48:37.784Z,6.57
2018-05-03T19:51:06.327Z,7.27
2018-05-03T19:53:33.805Z,9.23
2018-05-03T19:56:01.264Z,6.60
2018-05-03T19:58:28.726Z,7.97
2018-05-03T20:00:56.481Z,8.00
2018-05-03T20:03:23.913Z,7.10
2018-05-03T20:05:52.190Z,6.50
2018-05-03T20:08:20.486Z,8.60
2018-05-03T20:10:58.690Z,8.20
2018-05-03T20:13:26.130Z,8.17
2018-05-03T20:15:54.344Z,7.80
2018-05-03T20:18:21.795Z,12.33
2018-05-03T20:20:49.259Z,7.60
2018-05-03T20:23:16.712Z,6.80
2018-05-03T20:25:44.170Z,7.03
2018-05-03T20:28:11.608Z,6.90
2018-05-03T20:30:39.072Z,8.03
2018-05-03T20:33:06.511Z,8.27
2018-05-03T20:35:34.728Z,7.23
2018-05-03T20:38:02.172Z,7.80
2018-05-03T20:40:29.639Z,8.00
2018-05-03T20:42:57.091Z,7.67
2018-05-03T20:45:24.544Z,7.20
2018-05-03T20:47:51.986Z,8.27
2018-05-03T20:50:19.472Z,7.80
2018-05-03T20:52:46.935Z,7.77
2018-05-03T20:55:14.396Z,6.80
2018-05-03T20:57:41.932Z,7.60
2018-05-03T21:00:09.323Z,6.77
2018-05-03T21:02:36.767Z,8.30
2018-05-03T21:05:04.220Z,8.03
2018-05-03T21:07:31.667Z,7.03
2018-05-03T21:09:59.128Z,7.83
2018-05-03T21:12:26.571Z,7.50
2018-05-03T21:14:54.022Z,9.60
2018-05-03T21:17:21.469Z,7.30
2018-05-03T21:19:48.903Z,7.90
2018-05-03T21:22:17.150Z,8.63
2018-05-03T21:24:44.584Z,7.33
2018-05-03T21:27:12.044Z,7.07
2018-05-03T21:29:39.478Z,8.70
2018-05-03T21:32:06.925Z,7.27
2018-05-03T21:34:35.126Z,9.17
2018-05-03T21:37:02.578Z,9.80
2018-05-03T21:39:30.028Z,8.20
2018-05-03T21:41:57.489Z,7.87
2018-05-03T21:44:24.918Z,9.17
2018-05-03T21:46:53.141Z,9.10
2018-05-03T21:49:20.578Z,7.90
2018-05-03T21:51:48.037Z,9.57
2018-05-03T21:54:15.478Z,8.30
2018-05-03T21:56:42.936Z,13.30
2018-05-03T21:59:10.389Z,7.90
2018-05-03T22:01:37.873Z,8.93
2018-05-03T22:04:05.319Z,8.93
2018-05-03T22:06:32.805Z,8.73
2018-05-03T22:09:00.256Z,9.63
2018-05-03T22:11:27.714Z,8.73
2018-05-03T22:13:55.217Z,8.97
2018-05-03T22:16:22.607Z,8.27
2018-05-03T22:18:50.039Z,8.30
2018-05-03T22:21:18.279Z,8.17
2018-05-03T22:23:45.726Z,10.37
2018-05-03T22:26:13.171Z,7.90
2018-05-03T22:28:40.619Z,7.97
2018-05-03T22:31:08.048Z,9.40
2018-05-03T22:33:35.924Z,12.37
2018-05-03T22:36:03.374Z,9.67
2018-05-03T22:38:31.607Z,11.37
2018-05-03T22:40:59.070Z,7.90
2018-05-03T22:43:26.533Z,7.97
2018-05-03T22:45:55.500Z,8.40
2018-05-03T22:48:22.949Z,7.57
2018-05-03T22:50:50.375Z,7.10
2018-05-03T22:53:17.838Z,8.43
2018-05-03T22:55:45.284Z,8.03
2018-05-03T22:58:13.507Z,8.10
2018-05-03T23:00:40.959Z,6.53
2018-05-03T23:03:08.407Z,8.13
2018-05-03T23:05:35.852Z,9.57
2018-05-03T23:08:03.305Z,10.00
2018-05-03T23:10:30.755Z,10.00
2018-05-03T23:12:58.200Z,8.07
2018-05-03T23:15:26.418Z,7.27
2018-05-03T23:17:53.879Z,7.20
2018-05-03T23:20:21.318Z,7.40
2018-05-03T23:22:48.772Z,9.70
2018-05-03T23:25:16.220Z,7.80
2018-05-03T23:27:43.663Z,8.97
2018-05-03T23:30:11.864Z,8.27
2018-05-03T23:32:39.300Z,8.87
2018-05-03T23:35:07.516Z,9.00
2018-05-03T23:37:34.956Z,9.10
2018-05-03T23:40:02.405Z,9.00
2018-05-03T23:42:29.847Z,9.60
2018-05-03T23:44:57.291Z,9.50
2018-05-03T23:47:25.499Z,13.20
2018-05-03T23:49:52.957Z,10.90
2018-05-03T23:52:20.398Z,11.30
2018-05-03T23:54:47.864Z,10.10
2018-05-03T23:57:15.313Z,10.30
2018-05-03T23:59:42.771Z,9.90
